Mount Nebo, WV (26679)

1:34 PM EDT on July 31, 2014 (GMT -0400)
KWVMTNEB2 Elev 2195 ft | 38.14 °N, 80.85 °W | Change Station

Current weather conditions updated 5 seconds ago

Clear
Clear
77.7 °F
Feels Like 79 °F
N
1.0
Wind Variable Wind from SSE
Gusts 6.0 mph

Today is forecast to be Warmer than yesterday.

Today
High -- | Low -- °F
--% Chance of Precip.
Yesterday
High -- | Low -- °F
Precip. -- in
6:24 AM 8:33 PM
Waxing Crescent, 19% visible
Pressure 30.13 in
Visibility 10.0 miles
Clouds Clear
Heat Index 79 °F
Dew Point 60 °F
Humidity 55%
Rainfall 0.00 in
Snow Depth Not available.
UV 12 out of 12
Pollen 5.80 out of 12
Air Quality Not available.
Flu Activity Not available.
METAR KBKW 311651Z AUTO 22007KT 10SM CLR 23/10 A3020 RMK AO2 SLP201 T02330100 TSNO

More Conditions Fewer Conditions

Pressure 30.13 in
Visibility 10.0 miles
Clouds Clear
Heat Index 79 °F
Dew Point 60 °F
Humidity 55%
Rainfall 0.00 in
Snow Depth Not available.
UV 12 out of 12
Pollen 5.80 out of 12
Air Quality Not available.
Flu Activity Not available.
METAR KBKW 311651Z AUTO 22007KT 10SM CLR 23/10 A3020 RMK AO2 SLP201 T02330100 TSNO

More Conditions Fewer Conditions

10-Day Weather Forecast

Almanac

Astronomy

Jul. 31, 2014 Rise Set
Actual Time 6:24 AM EDT 8:33 PM EDT
Civil Twilight 5:55 AM EDT 9:03 PM EDT
Nautical Twilight 5:19 AM EDT 9:39 PM EDT
Astronomical Twilight 4:40 AM EDT 10:18 PM EDT
Moon 10:46 AM EDT 10:51 PM EDT
Length of Visible Light 15h 07m
Length of Day
14h 08m
Tomorrow will be 1m 50s shorter.
Waxing Crescent, 19% of the Moon is Illuminated
Today
Waxing Crescent
Aug 3
First Quarter
Aug 10
Full
Aug 17
Last Quarter
Aug 25
New

Today's Extremes

State Highs State Lows

Community

WunderPhotos

Upload Photos

1,739,385 photos uploaded!

Nearby

Snow Depth

Station Depth Elevation
No new snow has been reported.

Earthquake Activity

City Distance Mag. Time & Date
No recent earthquake activity has been reported nearby.
Minimum magnitude displayed is 2.5.

Coastal Water Temperatures

Place Temperature
No Stations Reporting

Nearby Weather Stations

Station Location Temp. Heat Index Dew Point Humidity Wind Precip. Elev Updated Type
Mt Nebo, WV 77.7 °F 79 °F 60 °F 55% SSE  at  1.0 mph 0.00 in / hr 2195 ft 1:34 PM EDT Rapid Fire
F.I.T. - Oyler Ave., Oak Hill, WV 78.6 °F 80 °F 57 °F 48% West  at  0.0 mph 0.00 in / hr 1988 ft 1:34 PM EDT Rapid Fire
., Gauley Bridge, WV 86.7 °F 86 °F 58 °F 38% NE  at  0.0 mph 0.00 in / hr 804 ft 1:29 PM EDT Normal
Glen Ferris, WV 84.4 °F 85 °F 61 °F 45% SE  at  0.0 mph 0.00 in / hr 676 ft 1:33 PM EDT Normal

Show More Stations Show Fewer Stations